createdAt,value
2018-09-26T00:00:31.666Z,86.72
2018-09-26T00:03:03.439Z,86.78
2018-09-26T00:05:31.824Z,86.73
2018-09-26T00:08:00.163Z,86.88
2018-09-26T00:10:28.942Z,87.05
2018-09-26T00:12:57.252Z,86.86
2018-09-26T00:15:25.630Z,87.01
2018-09-26T00:17:54.006Z,86.86
2018-09-26T00:20:22.361Z,87.35
2018-09-26T00:22:50.905Z,86.98
2018-09-26T00:25:19.308Z,86.76
2018-09-26T00:27:47.667Z,86.53
2018-09-26T00:30:16.075Z,86.79
2018-09-26T00:32:44.625Z,86.73
2018-09-26T00:35:12.989Z,87.15
2018-09-26T00:37:41.351Z,87.45
2018-09-26T00:40:09.742Z,86.95
2018-09-26T00:42:38.063Z,86.89
2018-09-26T00:45:06.408Z,87.15
2018-09-26T00:47:34.958Z,87.11
2018-09-26T00:50:03.297Z,87.01
2018-09-26T00:52:31.673Z,87.44
2018-09-26T00:55:00.041Z,86.89
2018-09-26T00:57:28.421Z,87.25
2018-09-26T00:59:56.809Z,87.34
2018-09-26T01:02:25.164Z,87.33
2018-09-26T01:04:53.528Z,86.81
2018-09-26T01:07:21.928Z,86.93
2018-09-26T01:09:50.310Z,87.61
2018-09-26T01:12:18.735Z,87.46
2018-09-26T01:14:47.269Z,87.81
2018-09-26T01:17:15.825Z,87.21
2018-09-26T01:19:44.305Z,87.56
2018-09-26T01:22:12.689Z,87.59
2018-09-26T01:24:41.187Z,87.17
2018-09-26T01:27:09.634Z,87.25
2018-09-26T01:29:38.016Z,87.58
2018-09-26T01:32:06.398Z,87.18
2018-09-26T01:34:34.793Z,87.50
2018-09-26T01:37:03.255Z,87.59
2018-09-26T01:39:31.610Z,87.71
2018-09-26T01:42:00.022Z,87.97
2018-09-26T01:44:28.359Z,87.52
2018-09-26T01:46:56.721Z,88.03
2018-09-26T01:49:25.213Z,87.69
2018-09-26T01:51:53.638Z,87.53
2018-09-26T01:54:22.034Z,87.65
2018-09-26T01:56:50.414Z,87.31
2018-09-26T01:59:18.775Z,87.85
2018-09-26T02:01:47.142Z,87.95
2018-09-26T02:04:15.486Z,87.92
2018-09-26T02:06:43.838Z,87.68
2018-09-26T02:09:13.024Z,87.83
2018-09-26T02:11:41.409Z,87.85
2018-09-26T02:14:09.766Z,87.49
2018-09-26T02:16:38.112Z,87.24
2018-09-26T02:19:06.757Z,87.57
2018-09-26T02:21:35.129Z,87.46
2018-09-26T02:24:03.464Z,87.03
2018-09-26T02:26:31.835Z,87.26
2018-09-26T02:29:00.228Z,87.03
2018-09-26T02:31:28.628Z,87.04
2018-09-26T02:33:56.961Z,87.35
2018-09-26T02:36:25.346Z,87.69
2018-09-26T02:38:54.121Z,87.06
2018-09-26T02:41:22.426Z,87.66
2018-09-26T02:43:50.759Z,87.64
2018-09-26T02:46:19.105Z,87.61
2018-09-26T02:48:52.817Z,87.78
2018-09-26T02:51:21.401Z,87.88
2018-09-26T02:53:49.736Z,87.73
2018-09-26T02:56:18.053Z,88.14
2018-09-26T02:58:46.445Z,87.84
2018-09-26T03:01:14.813Z,87.38
2018-09-26T03:03:43.249Z,87.27
2018-09-26T03:06:11.598Z,87.56
2018-09-26T03:08:40.055Z,88.03
2018-09-26T03:11:08.510Z,87.20
2018-09-26T03:13:36.883Z,87.62
2018-09-26T03:16:06.152Z,87.36
2018-09-26T03:18:34.491Z,87.50
2018-09-26T03:21:02.987Z,87.59
2018-09-26T03:23:31.345Z,87.18
2018-09-26T03:25:59.817Z,87.69
2018-09-26T03:28:28.179Z,87.89
2018-09-26T03:30:56.597Z,87.10
2018-09-26T03:33:24.946Z,87.21
2018-09-26T03:35:54.750Z,87.42
2018-09-26T03:38:23.074Z,87.12
2018-09-26T03:40:51.506Z,87.62
2018-09-26T03:43:19.992Z,87.51
2018-09-26T03:45:48.380Z,87.49
2018-09-26T03:48:16.746Z,87.35
2018-09-26T03:50:45.088Z,87.36
2018-09-26T03:53:14.631Z,87.50
2018-09-26T03:55:42.984Z,87.30
2018-09-26T03:58:11.337Z,87.33
2018-09-26T04:00:39.685Z,87.59
2018-09-26T04:03:08.081Z,87.69
2018-09-26T04:05:36.445Z,87.56
2018-09-26T04:08:04.911Z,87.71
2018-09-26T04:10:33.263Z,87.79
2018-09-26T04:13:01.676Z,87.44
2018-09-26T04:15:30.148Z,87.79
2018-09-26T04:17:58.537Z,87.36
2018-09-26T04:20:26.968Z,87.49
2018-09-26T04:22:55.268Z,87.85
2018-09-26T04:25:23.647Z,87.80
2018-09-26T04:27:52.015Z,87.42
2018-09-26T04:30:20.471Z,87.63
2018-09-26T04:32:48.939Z,87.73
2018-09-26T04:35:17.219Z,87.79
2018-09-26T04:37:45.547Z,87.64
2018-09-26T04:40:13.963Z,87.81
2018-09-26T04:42:42.498Z,87.62
2018-09-26T04:45:10.871Z,87.43
2018-09-26T04:47:39.202Z,87.47
2018-09-26T04:50:07.538Z,87.60
2018-09-26T04:52:35.895Z,87.22
2018-09-26T04:55:04.413Z,87.32
2018-09-26T04:57:32.772Z,87.72
2018-09-26T05:00:01.244Z,87.16
2018-09-26T05:02:29.724Z,87.55
2018-09-26T05:04:58.223Z,87.82
2018-09-26T05:07:26.582Z,88.17
2018-09-26T05:09:54.879Z,87.97
2018-09-26T05:12:24.336Z,88.17
2018-09-26T05:14:54.102Z,88.20
2018-09-26T05:17:22.485Z,88.03
2018-09-26T05:19:50.917Z,87.86
2018-09-26T05:22:19.274Z,87.24
2018-09-26T05:24:47.707Z,87.70
2018-09-26T05:27:16.063Z,87.94
2018-09-26T05:29:44.419Z,88.05
2018-09-26T05:32:12.821Z,87.74
2018-09-26T05:34:41.175Z,87.84
2018-09-26T05:37:09.951Z,87.89
2018-09-26T05:39:38.354Z,87.90
2018-09-26T05:42:06.765Z,88.00
2018-09-26T05:44:35.140Z,87.34
2018-09-26T05:47:03.474Z,88.10
2018-09-26T05:49:31.909Z,87.81
2018-09-26T05:52:00.240Z,88.12
2018-09-26T05:54:28.577Z,88.45
2018-09-26T05:56:56.917Z,88.02
2018-09-26T05:59:25.301Z,88.15
2018-09-26T06:01:53.818Z,87.91
2018-09-26T06:04:22.224Z,88.27
2018-09-26T06:06:50.617Z,87.66
2018-09-26T06:09:18.961Z,87.75
2018-09-26T06:11:47.276Z,87.94
2018-09-26T06:14:15.645Z,88.07
2018-09-26T06:16:44.085Z,88.12
2018-09-26T06:19:12.515Z,88.39
2018-09-26T06:21:40.855Z,87.80
2018-09-26T06:24:09.210Z,87.93
2018-09-26T06:26:37.720Z,86.98
2018-09-26T06:29:06.259Z,86.92
2018-09-26T06:31:34.951Z,87.37
2018-09-26T06:34:03.411Z,87.09
2018-09-26T06:36:31.800Z,86.90
2018-09-26T06:39:00.159Z,86.43
2018-09-26T06:41:28.579Z,86.55
2018-09-26T06:43:56.898Z,86.76
2018-09-26T06:46:25.266Z,86.57
2018-09-26T06:48:53.624Z,86.31
2018-09-26T06:51:21.957Z,87.00
2018-09-26T06:53:50.253Z,86.25
2018-09-26T06:56:18.702Z,85.72
2018-09-26T06:58:47.071Z,85.99
2018-09-26T07:01:15.440Z,85.45
2018-09-26T07:03:43.807Z,85.60
2018-09-26T07:06:12.166Z,85.98
2018-09-26T07:08:40.629Z,86.11
2018-09-26T07:11:08.998Z,86.30
2018-09-26T07:13:37.329Z,86.00
2018-09-26T07:16:05.693Z,84.90
2018-09-26T07:18:34.063Z,85.24
2018-09-26T07:21:02.391Z,84.17
2018-09-26T07:23:30.737Z,83.72
2018-09-26T07:25:59.082Z,84.00
2018-09-26T07:28:27.460Z,83.66
2018-09-26T07:30:55.816Z,83.55
2018-09-26T07:33:24.143Z,83.57
2018-09-26T07:35:52.569Z,83.12
2018-09-26T07:38:20.979Z,82.39
2018-09-26T07:40:49.327Z,81.95
2018-09-26T07:43:17.671Z,81.83
2018-09-26T07:45:46.099Z,82.04
2018-09-26T07:48:14.434Z,81.75
2018-09-26T07:50:42.831Z,81.24
2018-09-26T07:53:11.257Z,81.70
2018-09-26T07:55:39.578Z,80.76
2018-09-26T07:58:07.924Z,79.37
2018-09-26T08:00:36.296Z,77.89
2018-09-26T08:03:04.658Z,77.76
2018-09-26T08:05:33.091Z,76.55
2018-09-26T08:08:01.456Z,76.31
2018-09-26T08:10:29.816Z,74.99
2018-09-26T08:12:58.171Z,73.88
2018-09-26T08:15:26.491Z,72.51
2018-09-26T08:17:54.847Z,71.16
2018-09-26T08:20:23.275Z,70.54
2018-09-26T08:22:51.636Z,70.42
2018-09-26T08:25:20.159Z,69.95
2018-09-26T08:27:48.545Z,68.80
2018-09-26T08:30:16.883Z,68.44
2018-09-26T08:32:45.245Z,67.37
2018-09-26T08:35:13.615Z,67.23
2018-09-26T08:37:41.984Z,66.22
2018-09-26T08:40:10.355Z,65.72
2018-09-26T08:42:38.991Z,65.37
2018-09-26T08:45:07.995Z,64.23
2018-09-26T08:47:36.429Z,63.63
2018-09-26T08:50:05.093Z,62.79
2018-09-26T08:52:33.432Z,63.61
2018-09-26T08:55:01.812Z,62.79
2018-09-26T08:57:30.149Z,61.73
2018-09-26T08:59:58.736Z,60.79
2018-09-26T09:02:27.051Z,60.19
2018-09-26T09:04:55.417Z,60.98
2018-09-26T09:07:23.749Z,60.27
2018-09-26T09:09:52.104Z,61.04
2018-09-26T09:12:20.433Z,59.92
2018-09-26T09:14:49.052Z,59.90
2018-09-26T09:17:17.187Z,60.43
2018-09-26T09:19:45.494Z,59.83
2018-09-26T09:22:13.849Z,60.43
2018-09-26T09:24:42.232Z,59.34
2018-09-26T09:27:10.629Z,59.29
2018-09-26T09:29:38.977Z,58.64
2018-09-26T09:32:07.539Z,58.36
2018-09-26T09:34:35.914Z,58.11
2018-09-26T09:37:04.249Z,57.75
2018-09-26T09:39:32.577Z,56.97
2018-09-26T09:42:01.001Z,55.99
2018-09-26T09:44:29.436Z,55.05
2018-09-26T09:46:57.767Z,55.45
2018-09-26T09:49:26.216Z,54.66
2018-09-26T09:51:54.653Z,55.01
2018-09-26T09:54:22.981Z,55.98
2018-09-26T09:56:51.369Z,55.17
2018-09-26T09:59:19.706Z,55.15
2018-09-26T10:01:48.137Z,54.31
2018-09-26T10:04:16.525Z,54.02
2018-09-26T10:06:44.855Z,54.67
2018-09-26T10:09:13.217Z,53.54
2018-09-26T10:11:41.589Z,53.33
2018-09-26T10:14:10.787Z,52.54
2018-09-26T10:16:39.166Z,54.34
2018-09-26T10:19:07.518Z,54.16
2018-09-26T10:21:36.998Z,53.71
2018-09-26T10:24:05.369Z,54.25
2018-09-26T10:26:33.736Z,54.56
2018-09-26T10:29:02.127Z,53.90
2018-09-26T10:31:31.696Z,54.07
2018-09-26T10:34:00.039Z,53.01
2018-09-26T10:36:28.361Z,52.61
2018-09-26T10:38:56.721Z,52.54
2018-09-26T10:41:25.086Z,52.49
2018-09-26T10:43:53.571Z,52.08
2018-09-26T10:46:21.930Z,52.20
2018-09-26T10:48:50.240Z,51.71
2018-09-26T10:51:18.587Z,51.96
2018-09-26T10:53:46.922Z,51.26
2018-09-26T10:56:15.310Z,51.00
2018-09-26T10:58:43.624Z,52.70
2018-09-26T11:01:11.977Z,51.66
2018-09-26T11:03:40.287Z,51.68
2018-09-26T11:06:08.648Z,51.03
2018-09-26T11:08:37.081Z,51.75
2018-09-26T11:11:05.554Z,51.27
2018-09-26T11:13:34.828Z,50.83
2018-09-26T11:16:03.158Z,49.93
2018-09-26T11:18:31.594Z,50.16
2018-09-26T11:21:00.149Z,50.38
2018-09-26T11:23:28.504Z,50.32
2018-09-26T11:25:57.038Z,51.64
2018-09-26T11:28:25.478Z,51.31
2018-09-26T11:30:53.815Z,51.08
2018-09-26T11:33:22.273Z,52.48
2018-09-26T11:35:50.726Z,52.36
2018-09-26T11:38:19.149Z,51.95
2018-09-26T11:40:47.841Z,51.24
2018-09-26T11:43:16.284Z,51.32
2018-09-26T11:45:44.613Z,51.77
2018-09-26T11:48:12.955Z,50.41
2018-09-26T11:50:41.345Z,50.43
2018-09-26T11:53:09.799Z,50.01
2018-09-26T11:55:38.121Z,49.80
2018-09-26T11:58:06.862Z,50.66
2018-09-26T12:00:35.232Z,50.04
2018-09-26T12:03:03.605Z,50.86
2018-09-26T12:05:31.996Z,50.02
2018-09-26T12:08:00.715Z,49.79
2018-09-26T12:10:29.093Z,49.41
2018-09-26T12:12:57.534Z,48.79
2018-09-26T12:15:25.860Z,49.75
2018-09-26T12:17:54.200Z,48.87
2018-09-26T12:20:22.557Z,48.38
2018-09-26T12:22:50.942Z,49.72
2018-09-26T12:25:19.286Z,49.52
2018-09-26T12:27:47.690Z,50.15
2018-09-26T12:30:16.121Z,49.71
2018-09-26T12:32:44.559Z,49.52
2018-09-26T12:35:12.887Z,48.40
2018-09-26T12:37:41.302Z,48.20
2018-09-26T12:40:10.160Z,47.32
2018-09-26T12:42:38.728Z,48.71
2018-09-26T12:45:07.181Z,47.72
2018-09-26T12:47:35.525Z,47.62
2018-09-26T12:50:04.234Z,47.13
2018-09-26T12:52:32.610Z,46.99
2018-09-26T12:55:00.986Z,47.26
2018-09-26T12:57:29.310Z,47.29
2018-09-26T12:59:57.694Z,47.39
2018-09-26T13:02:26.171Z,46.62
2018-09-26T13:04:54.400Z,47.06
2018-09-26T13:07:22.764Z,46.21
2018-09-26T13:09:51.118Z,45.27
2018-09-26T13:12:19.458Z,45.83
2018-09-26T13:14:47.812Z,46.27
2018-09-26T13:17:16.139Z,46.53
2018-09-26T13:19:44.548Z,46.21
2018-09-26T13:22:12.907Z,46.39
2018-09-26T13:24:41.237Z,46.13
2018-09-26T13:27:09.736Z,46.35
2018-09-26T13:29:38.123Z,45.74
2018-09-26T13:32:06.550Z,45.97
2018-09-26T13:34:34.992Z,45.75
2018-09-26T13:37:03.361Z,46.09
2018-09-26T13:39:31.888Z,45.36
2018-09-26T13:42:00.182Z,44.91
2018-09-26T13:44:28.513Z,44.18
2018-09-26T13:46:56.873Z,45.19
2018-09-26T13:49:25.228Z,43.60
2018-09-26T13:51:53.568Z,44.17
2018-09-26T13:54:21.941Z,43.84
2018-09-26T13:56:50.369Z,43.39
2018-09-26T13:59:18.738Z,44.28
2018-09-26T14:01:47.174Z,43.79
2018-09-26T14:04:15.539Z,43.64
2018-09-26T14:06:43.867Z,43.40
2018-09-26T14:09:12.217Z,44.46
2018-09-26T14:11:41.693Z,43.86
2018-09-26T14:14:10.166Z,42.81
2018-09-26T14:16:38.438Z,42.70
2018-09-26T14:19:06.996Z,43.20
2018-09-26T14:21:39.039Z,43.21
2018-09-26T14:24:07.776Z,42.85
2018-09-26T14:26:36.777Z,43.10
2018-09-26T14:29:05.171Z,42.55
2018-09-26T14:31:33.532Z,41.99
2018-09-26T14:34:01.881Z,42.30
2018-09-26T14:36:30.257Z,42.32
2018-09-26T14:38:58.977Z,42.21
2018-09-26T14:41:28.332Z,42.36
2018-09-26T14:43:57.062Z,42.44
2018-09-26T14:46:25.522Z,41.53
2018-09-26T14:48:53.916Z,41.93
2018-09-26T14:51:23.062Z,42.50
2018-09-26T14:53:51.393Z,42.68
2018-09-26T14:56:19.769Z,42.71
2018-09-26T14:58:48.139Z,43.06
2018-09-26T15:01:16.495Z,43.78
2018-09-26T15:03:44.876Z,43.34
2018-09-26T15:06:13.345Z,44.71
2018-09-26T15:08:42.013Z,45.13
2018-09-26T15:11:10.328Z,44.80
2018-09-26T15:13:38.665Z,44.60
2018-09-26T15:16:07.519Z,44.88
2018-09-26T15:18:35.894Z,45.54
2018-09-26T15:21:04.238Z,45.26
2018-09-26T15:23:32.626Z,45.55
2018-09-26T15:26:00.975Z,45.49
2018-09-26T15:28:29.398Z,45.40
2018-09-26T15:30:57.760Z,46.33
2018-09-26T15:33:26.080Z,45.76
2018-09-26T15:35:55.492Z,46.74
2018-09-26T15:38:24.001Z,46.25
2018-09-26T15:40:52.251Z,47.30
2018-09-26T15:43:20.608Z,47.27
2018-09-26T15:45:48.968Z,47.54
2018-09-26T15:48:17.366Z,47.05
2018-09-26T15:50:45.697Z,47.76
2018-09-26T15:53:14.036Z,47.87
2018-09-26T15:55:42.396Z,47.17
2018-09-26T15:58:10.764Z,47.19
2018-09-26T16:00:39.113Z,47.63
2018-09-26T16:03:07.507Z,47.85
2018-09-26T16:05:35.916Z,48.07
2018-09-26T16:08:04.399Z,48.36
2018-09-26T16:10:33.524Z,48.70
2018-09-26T16:13:01.875Z,48.51
2018-09-26T16:15:30.268Z,48.01
2018-09-26T16:17:58.664Z,48.74
2018-09-26T16:20:27.689Z,48.21
2018-09-26T16:22:56.025Z,49.21
2018-09-26T16:25:24.464Z,48.51
2018-09-26T16:27:52.781Z,49.64
2018-09-26T16:30:21.162Z,49.47
2018-09-26T16:32:49.588Z,49.50
2018-09-26T16:35:18.649Z,50.40
2018-09-26T16:37:47.008Z,51.01
2018-09-26T16:40:15.486Z,51.02
2018-09-26T16:42:43.909Z,51.22
2018-09-26T16:45:12.243Z,51.39
2018-09-26T16:47:40.659Z,51.40
2018-09-26T16:50:09.292Z,52.03
2018-09-26T16:52:37.545Z,51.95
2018-09-26T16:55:06.588Z,52.65
2018-09-26T16:57:34.945Z,52.24
2018-09-26T17:00:03.277Z,52.86
2018-09-26T17:02:32.759Z,53.31
2018-09-26T17:05:01.097Z,53.79
2018-09-26T17:07:29.518Z,53.84
2018-09-26T17:09:57.875Z,54.04
2018-09-26T17:12:26.221Z,54.52
2018-09-26T17:14:54.565Z,55.10
2018-09-26T17:17:22.887Z,54.90
2018-09-26T17:19:51.555Z,55.07
2018-09-26T17:22:19.863Z,55.81
2018-09-26T17:24:48.226Z,56.06
2018-09-26T17:27:16.558Z,56.40
2018-09-26T17:29:44.912Z,55.59
2018-09-26T17:32:13.293Z,55.92
2018-09-26T17:34:41.793Z,56.50
2018-09-26T17:37:10.105Z,57.19
2018-09-26T17:39:38.812Z,57.14
2018-09-26T17:42:07.212Z,57.63
2018-09-26T17:44:35.623Z,57.97
2018-09-26T17:47:04.023Z,58.16
2018-09-26T17:49:32.550Z,58.20
2018-09-26T17:52:00.912Z,58.38
2018-09-26T17:54:29.268Z,57.79
2018-09-26T17:56:57.626Z,58.50
2018-09-26T17:59:25.959Z,57.96
2018-09-26T18:01:54.341Z,58.99
2018-09-26T18:04:22.731Z,59.04
2018-09-26T18:06:51.075Z,59.58
2018-09-26T18:09:19.418Z,60.01
2018-09-26T18:11:47.743Z,60.84
2018-09-26T18:14:17.320Z,60.86
2018-09-26T18:16:45.682Z,61.91
2018-09-26T18:19:14.011Z,62.58
2018-09-26T18:21:42.718Z,62.55
2018-09-26T18:24:11.046Z,62.89
2018-09-26T18:26:39.356Z,63.29
2018-09-26T18:29:07.721Z,63.34
2018-09-26T18:31:36.095Z,64.20
2018-09-26T18:34:04.641Z,63.39
2018-09-26T18:36:32.977Z,64.57
2018-09-26T18:39:01.348Z,65.21
2018-09-26T18:41:29.956Z,65.00
2018-09-26T18:43:58.331Z,66.35
2018-09-26T18:46:26.721Z,66.52
2018-09-26T18:48:55.063Z,67.62
2018-09-26T18:51:23.403Z,67.46
2018-09-26T18:53:52.540Z,67.74
2018-09-26T18:56:20.866Z,67.83
2018-09-26T18:58:49.277Z,68.63
2018-09-26T19:01:17.638Z,68.63
2018-09-26T19:03:45.955Z,68.76
2018-09-26T19:06:14.524Z,69.57
2018-09-26T19:08:42.894Z,69.67
2018-09-26T19:11:11.274Z,69.61
2018-09-26T19:13:39.617Z,70.24
2018-09-26T19:16:08.015Z,70.22
2018-09-26T19:18:36.413Z,70.25
2018-09-26T19:21:04.860Z,70.97
2018-09-26T19:23:33.198Z,71.77
2018-09-26T19:26:01.604Z,71.71
2018-09-26T19:28:29.928Z,72.17
2018-09-26T19:30:58.294Z,71.70
2018-09-26T19:33:26.637Z,72.08
2018-09-26T19:35:55.604Z,72.25
2018-09-26T19:38:23.937Z,72.15
2018-09-26T19:40:52.256Z,72.52
2018-09-26T19:43:20.617Z,72.64
2018-09-26T19:45:48.989Z,72.57
2018-09-26T19:48:17.437Z,72.88
2018-09-26T19:50:45.770Z,73.05
2018-09-26T19:53:14.112Z,72.98
2018-09-26T19:55:42.517Z,73.67
2018-09-26T19:58:10.887Z,73.76
2018-09-26T20:00:39.280Z,73.57
2018-09-26T20:03:07.619Z,73.81
2018-09-26T20:05:36.052Z,74.09
2018-09-26T20:08:04.512Z,74.26
2018-09-26T20:10:32.839Z,74.08
2018-09-26T20:13:01.186Z,74.26
2018-09-26T20:15:29.599Z,74.37
2018-09-26T20:17:58.301Z,74.70
2018-09-26T20:20:26.650Z,74.69
2018-09-26T20:22:55.024Z,74.91
2018-09-26T20:25:23.356Z,75.55
2018-09-26T20:27:51.755Z,75.01
2018-09-26T20:30:20.149Z,75.32
2018-09-26T20:32:48.519Z,75.14
2018-09-26T20:35:16.929Z,75.65
2018-09-26T20:37:45.303Z,75.18
2018-09-26T20:40:13.617Z,75.80
2018-09-26T20:42:41.949Z,75.98
2018-09-26T20:45:10.291Z,75.66
2018-09-26T20:47:38.670Z,75.48
2018-09-26T20:50:07.120Z,75.90
2018-09-26T20:52:35.486Z,74.98
2018-09-26T20:55:03.952Z,75.02
2018-09-26T20:57:32.346Z,75.51
2018-09-26T21:00:00.706Z,74.87
2018-09-26T21:02:29.075Z,75.13
2018-09-26T21:04:57.471Z,75.76
2018-09-26T21:07:25.831Z,75.30
2018-09-26T21:09:54.279Z,75.20
2018-09-26T21:12:22.681Z,75.32
2018-09-26T21:14:51.040Z,75.92
2018-09-26T21:17:19.483Z,76.05
2018-09-26T21:19:47.811Z,76.29
2018-09-26T21:22:16.181Z,75.84
2018-09-26T21:24:44.961Z,76.47
2018-09-26T21:27:13.363Z,76.52
2018-09-26T21:29:41.696Z,76.49
2018-09-26T21:32:10.162Z,76.75
2018-09-26T21:34:38.476Z,76.36
2018-09-26T21:37:07.715Z,76.54
2018-09-26T21:39:36.092Z,76.53
2018-09-26T21:42:04.425Z,76.11
2018-09-26T21:44:32.844Z,76.33
2018-09-26T21:47:01.191Z,77.01
2018-09-26T21:49:29.566Z,76.52
2018-09-26T21:51:57.910Z,77.21
2018-09-26T21:54:26.283Z,77.34
2018-09-26T21:56:54.668Z,76.97
2018-09-26T21:59:23.010Z,76.90
2018-09-26T22:01:51.371Z,77.35
2018-09-26T22:04:19.738Z,78.01
2018-09-26T22:06:48.542Z,78.23
2018-09-26T22:09:17.829Z,77.60
2018-09-26T22:11:46.231Z,77.93
2018-09-26T22:14:14.609Z,78.33
2018-09-26T22:16:42.995Z,77.83
2018-09-26T22:19:11.488Z,78.61
2018-09-26T22:21:39.859Z,78.93
2018-09-26T22:24:08.419Z,79.18
2018-09-26T22:26:37.928Z,79.02
2018-09-26T22:29:06.333Z,78.97
2018-09-26T22:31:34.695Z,79.03
2018-09-26T22:34:03.043Z,79.55
2018-09-26T22:36:31.402Z,79.09
2018-09-26T22:38:59.866Z,79.49
2018-09-26T22:41:28.237Z,79.19
2018-09-26T22:43:56.710Z,79.16
2018-09-26T22:46:25.082Z,80.04
2018-09-26T22:48:53.462Z,79.32
2018-09-26T22:51:21.814Z,79.88
2018-09-26T22:53:50.177Z,79.77
2018-09-26T22:56:18.547Z,80.20
2018-09-26T22:58:46.907Z,80.11
2018-09-26T23:01:15.289Z,79.80
2018-09-26T23:03:43.624Z,80.64
2018-09-26T23:06:11.998Z,80.45
2018-09-26T23:08:40.359Z,80.28
2018-09-26T23:11:08.896Z,80.79
2018-09-26T23:13:37.354Z,80.89
2018-09-26T23:16:06.471Z,80.57
2018-09-26T23:18:34.833Z,80.44
2018-09-26T23:21:03.236Z,80.78
2018-09-26T23:23:31.820Z,80.80
2018-09-26T23:26:00.213Z,80.76
2018-09-26T23:28:28.610Z,80.26
2018-09-26T23:30:56.958Z,80.89
2018-09-26T23:33:25.405Z,80.75
2018-09-26T23:35:53.721Z,80.64
2018-09-26T23:38:22.129Z,80.73
2018-09-26T23:40:50.482Z,80.96
2018-09-26T23:43:18.853Z,81.27
2018-09-26T23:45:47.299Z,81.41
2018-09-26T23:48:15.645Z,81.34
2018-09-26T23:50:44.005Z,81.14
2018-09-26T23:53:12.417Z,81.08
2018-09-26T23:55:41.060Z,81.16
2018-09-26T23:58:09.409Z,81.38
